createdAt,value
2023-06-30T00:04:07.465Z,2.00
2023-06-30T00:09:10.357Z,1.00
2023-06-30T00:14:13.132Z,1.25
2023-06-30T00:19:17.644Z,2.00
2023-06-30T00:24:20.524Z,1.25
2023-06-30T00:29:24.073Z,1.00
2023-06-30T00:34:29.072Z,2.00
2023-06-30T00:39:31.871Z,1.00
2023-06-30T00:44:36.973Z,1.25
2023-06-30T00:49:41.726Z,1.00
2023-06-30T00:54:44.617Z,1.75
2023-06-30T00:59:47.479Z,1.00
2023-06-30T01:04:59.776Z,1.25
2023-06-30T01:10:09.005Z,1.25
2023-06-30T01:15:13.572Z,1.00
2023-06-30T01:20:20.223Z,1.00
2023-06-30T01:25:27.611Z,1.75
2023-06-30T01:30:31.264Z,1.00
2023-06-30T01:35:36.049Z,1.00
2023-06-30T01:40:39.111Z,1.75
2023-06-30T01:45:42.809Z,1.25
2023-06-30T01:50:47.732Z,1.25
2023-06-30T01:55:51.483Z,1.00
2023-06-30T02:00:54.558Z,1.00
2023-06-30T02:05:58.810Z,2.00
2023-06-30T02:11:01.668Z,1.50
2023-06-30T02:16:04.592Z,1.75
2023-06-30T02:21:08.859Z,2.00
2023-06-30T02:26:11.740Z,1.75
2023-06-30T02:31:14.745Z,2.00
2023-06-30T02:36:18.949Z,2.00
2023-06-30T02:41:21.791Z,2.25
2023-06-30T02:46:24.657Z,1.50
2023-06-30T02:51:29.122Z,1.25
2023-06-30T02:56:33.014Z,1.75
2023-06-30T03:01:36.857Z,1.75
2023-06-30T03:06:41.525Z,1.00
2023-06-30T03:11:45.994Z,1.00
2023-06-30T03:16:49.442Z,1.00
2023-06-30T03:21:54.148Z,1.25
2023-06-30T03:26:56.936Z,2.00
2023-06-30T03:32:02.038Z,2.00
2023-06-30T03:37:06.822Z,3.25
2023-06-30T03:42:09.876Z,3.00
2023-06-30T03:47:14.264Z,2.00
2023-06-30T03:52:18.559Z,2.00
2023-06-30T03:57:21.386Z,2.00
2023-06-30T04:02:24.665Z,3.00
2023-06-30T04:07:29.038Z,2.75
2023-06-30T04:12:32.186Z,3.00
2023-06-30T04:17:35.103Z,2.75
2023-06-30T04:22:39.653Z,3.75
2023-06-30T04:27:42.460Z,4.50
2023-06-30T04:32:45.298Z,3.00
2023-06-30T04:37:49.515Z,3.75
2023-06-30T04:42:52.287Z,3.00
2023-06-30T04:47:55.180Z,4.25
2023-06-30T04:52:59.491Z,4.25
2023-06-30T04:58:02.422Z,3.50
2023-06-30T05:03:05.676Z,3.75
2023-06-30T05:08:09.980Z,3.75
2023-06-30T05:13:12.799Z,4.00
2023-06-30T05:18:16.462Z,4.25
2023-06-30T05:23:21.080Z,3.75
2023-06-30T05:28:23.961Z,3.75
2023-06-30T05:33:27.014Z,4.00
2023-06-30T05:38:31.649Z,3.50
2023-06-30T05:43:34.419Z,3.75
2023-06-30T05:48:37.268Z,4.00
2023-06-30T05:53:41.435Z,4.00
2023-06-30T05:58:44.260Z,5.50
2023-06-30T06:03:47.286Z,3.00
2023-06-30T06:08:51.631Z,4.00
2023-06-30T06:13:54.995Z,4.00
2023-06-30T06:18:57.961Z,4.00
2023-06-30T06:24:02.403Z,5.00
2023-06-30T06:29:05.551Z,4.00
2023-06-30T06:34:08.467Z,4.25
2023-06-30T06:39:12.972Z,5.00
2023-06-30T06:44:15.900Z,3.00
2023-06-30T06:49:18.822Z,4.50
2023-06-30T06:54:26.672Z,3.75
2023-06-30T06:59:29.837Z,3.75
2023-06-30T07:04:32.625Z,4.75
2023-06-30T07:09:36.817Z,5.00
2023-06-30T07:14:39.788Z,4.00
2023-06-30T07:19:43.789Z,4.75
2023-06-30T07:24:48.272Z,5.75
2023-06-30T07:29:52.196Z,4.00
2023-06-30T07:34:55.012Z,3.50
2023-06-30T07:40:05.711Z,3.50
2023-06-30T07:45:19.266Z,4.00
2023-06-30T07:50:22.187Z,3.50
2023-06-30T07:55:26.836Z,4.00
2023-06-30T08:00:30.368Z,4.00
2023-06-30T08:05:34.144Z,4.00
2023-06-30T08:10:39.995Z,4.25
2023-06-30T08:15:45.861Z,5.00
2023-06-30T08:20:51.378Z,5.00
2023-06-30T08:25:56.460Z,4.00
2023-06-30T08:30:59.493Z,4.50
2023-06-30T08:36:02.825Z,5.50
2023-06-30T08:41:07.513Z,6.00
2023-06-30T08:46:12.694Z,5.50
2023-06-30T08:51:17.471Z,4.75
2023-06-30T08:56:22.925Z,5.00
2023-06-30T09:01:27.266Z,5.50
2023-06-30T09:06:30.829Z,5.25
2023-06-30T09:11:36.010Z,5.75
2023-06-30T09:16:38.920Z,6.00
2023-06-30T09:21:42.225Z,4.50
2023-06-30T09:26:46.678Z,5.00
2023-06-30T09:31:52.374Z,5.00
2023-06-30T09:36:56.774Z,4.00
2023-06-30T09:42:00.988Z,5.00
2023-06-30T09:47:04.617Z,4.25
2023-06-30T09:52:10.197Z,4.00
2023-06-30T09:57:17.657Z,4.00
2023-06-30T10:02:20.718Z,5.25
2023-06-30T10:07:23.722Z,5.00
2023-06-30T10:12:29.499Z,4.75
2023-06-30T10:17:33.762Z,4.50
2023-06-30T10:22:38.209Z,5.00
2023-06-30T10:27:43.205Z,3.00
2023-06-30T10:32:46.464Z,3.75
2023-06-30T10:37:49.945Z,4.00
2023-06-30T10:42:57.513Z,3.50
2023-06-30T10:48:10.236Z,4.00
2023-06-30T10:53:32.241Z,3.00
2023-06-30T10:58:44.982Z,5.00
2023-06-30T11:04:13.575Z,3.33
2023-06-30T11:09:16.655Z,3.00
2023-06-30T11:14:34.137Z,3.25
2023-06-30T11:19:38.522Z,3.50
2023-06-30T11:24:41.925Z,4.00
2023-06-30T11:29:47.354Z,3.00
2023-06-30T11:34:50.901Z,4.25
2023-06-30T11:39:54.533Z,3.50
2023-06-30T11:44:58.805Z,4.00
2023-06-30T11:50:07.092Z,3.25
2023-06-30T11:55:11.399Z,3.25
2023-06-30T12:00:18.785Z,2.50
2023-06-30T12:05:33.991Z,3.00
2023-06-30T12:10:39.410Z,5.00
2023-06-30T12:15:44.712Z,3.50
2023-06-30T12:20:47.819Z,3.00
2023-06-30T12:25:50.857Z,2.50
2023-06-30T12:30:56.111Z,4.00
2023-06-30T12:35:58.957Z,3.25
2023-06-30T12:41:01.963Z,2.00
2023-06-30T12:46:06.306Z,4.00
2023-06-30T12:51:10.075Z,4.50
2023-06-30T12:56:13.260Z,3.25
2023-06-30T13:01:17.867Z,2.00
2023-06-30T13:06:20.922Z,4.00
2023-06-30T13:11:24.335Z,3.50
2023-06-30T13:16:28.687Z,3.00
2023-06-30T13:21:31.898Z,3.00
2023-06-30T13:26:36.333Z,2.00
2023-06-30T13:31:44.137Z,3.50
2023-06-30T13:36:48.674Z,1.00
2023-06-30T13:41:51.514Z,2.00
2023-06-30T13:46:56.344Z,3.75
2023-06-30T13:51:59.831Z,2.00
2023-06-30T13:57:02.952Z,3.00
2023-06-30T14:02:07.838Z,2.50
2023-06-30T14:07:10.804Z,2.50
2023-06-30T14:12:13.709Z,2.00
2023-06-30T14:17:18.226Z,2.00
2023-06-30T14:22:21.165Z,2.75
2023-06-30T14:27:24.056Z,1.50
2023-06-30T14:32:29.057Z,2.25
2023-06-30T14:37:31.938Z,3.00
2023-06-30T14:42:34.782Z,2.75
2023-06-30T14:47:39.005Z,4.00
2023-06-30T14:52:41.781Z,4.00
2023-06-30T14:57:46.556Z,2.25
2023-06-30T15:02:52.019Z,2.25
2023-06-30T15:07:56.622Z,2.00
2023-06-30T15:12:59.488Z,2.00
2023-06-30T15:18:03.886Z,2.00
2023-06-30T15:23:06.816Z,1.50
2023-06-30T15:28:09.978Z,1.00
2023-06-30T15:33:15.395Z,1.25
2023-06-30T15:38:18.369Z,1.00
2023-06-30T15:43:21.286Z,0.00
2023-06-30T15:48:25.618Z,1.00
2023-06-30T15:53:28.540Z,1.25
2023-06-30T15:58:31.545Z,1.00
2023-06-30T16:03:39.074Z,1.25
2023-06-30T16:08:42.106Z,1.25
2023-06-30T16:13:45.111Z,2.00
2023-06-30T16:18:50.333Z,2.00
2023-06-30T16:23:54.011Z,1.00
2023-06-30T16:28:57.160Z,2.00
2023-06-30T16:34:11.949Z,1.00
2023-06-30T16:39:20.979Z,1.00
2023-06-30T16:44:24.010Z,1.00
2023-06-30T16:49:31.387Z,0.00
2023-06-30T16:54:34.229Z,1.00
2023-06-30T16:59:37.423Z,1.00
2023-06-30T17:04:41.839Z,1.00
2023-06-30T17:09:44.767Z,0.75
2023-06-30T17:14:47.648Z,0.00
2023-06-30T17:19:52.113Z,0.50
2023-06-30T17:24:58.482Z,1.00
2023-06-30T17:30:08.709Z,1.00
2023-06-30T17:35:13.015Z,2.75
2023-06-30T17:40:16.038Z,0.50
2023-06-30T17:45:18.871Z,1.00
2023-06-30T17:50:26.142Z,1.00
2023-06-30T17:55:28.956Z,0.25
2023-06-30T18:00:31.864Z,1.00
2023-06-30T18:05:36.388Z,1.00
2023-06-30T18:10:41.714Z,1.00
2023-06-30T18:15:45.257Z,1.00
2023-06-30T18:20:49.671Z,0.00
2023-06-30T18:25:55.547Z,0.50
2023-06-30T18:30:58.514Z,0.00
2023-06-30T18:36:02.887Z,1.00
2023-06-30T18:41:05.975Z,0.50
2023-06-30T18:46:09.078Z,1.00
2023-06-30T18:51:13.801Z,0.00
2023-06-30T18:56:16.740Z,0.00
2023-06-30T19:01:19.886Z,0.00
2023-06-30T19:06:25.515Z,0.25
2023-06-30T19:11:28.552Z,0.00
2023-06-30T19:16:31.657Z,0.00
2023-06-30T19:21:36.033Z,2.00
2023-06-30T19:26:38.906Z,0.00
2023-06-30T19:31:42.053Z,0.00
2023-06-30T19:36:46.680Z,0.75
2023-06-30T19:41:49.732Z,1.00
2023-06-30T19:46:52.681Z,0.00
2023-06-30T19:51:56.979Z,0.00
2023-06-30T19:56:59.800Z,0.75
2023-06-30T20:02:02.789Z,0.00
2023-06-30T20:07:09.418Z,0.00
2023-06-30T20:12:12.401Z,0.00
2023-06-30T20:17:15.333Z,0.00
2023-06-30T20:22:19.481Z,1.00
2023-06-30T20:27:22.456Z,1.00
2023-06-30T20:32:25.622Z,1.00
2023-06-30T20:37:29.815Z,0.25
2023-06-30T20:42:32.767Z,1.00
2023-06-30T20:47:36.018Z,1.00
2023-06-30T20:52:40.320Z,1.00
2023-06-30T20:57:43.220Z,0.75
2023-06-30T21:02:46.291Z,1.50
2023-06-30T21:07:50.906Z,1.00
2023-06-30T21:12:56.155Z,1.25
2023-06-30T21:17:59.141Z,1.25
2023-06-30T21:23:03.320Z,2.00
2023-06-30T21:28:06.349Z,2.00
2023-06-30T21:33:09.397Z,1.75
2023-06-30T21:38:13.694Z,2.00
2023-06-30T21:43:16.536Z,1.00
2023-06-30T21:48:19.377Z,3.00
2023-06-30T21:53:23.484Z,2.00
2023-06-30T21:58:27.931Z,1.00
2023-06-30T22:03:32.325Z,1.00
2023-06-30T22:08:36.570Z,0.00
2023-06-30T22:13:39.453Z,2.25
2023-06-30T22:18:42.579Z,1.00
2023-06-30T22:23:46.845Z,1.25
2023-06-30T22:28:49.892Z,0.75
2023-06-30T22:33:52.712Z,0.00
2023-06-30T22:38:56.901Z,1.50
2023-06-30T22:44:00.637Z,0.50
2023-06-30T22:49:04.674Z,1.00
2023-06-30T22:54:09.031Z,1.25
2023-06-30T22:59:12.017Z,0.00
2023-06-30T23:04:14.918Z,1.00
2023-06-30T23:09:19.089Z,0.00
2023-06-30T23:14:22.514Z,0.00
2023-06-30T23:19:27.427Z,0.00
2023-06-30T23:24:33.897Z,1.00
2023-06-30T23:29:38.617Z,1.00
2023-06-30T23:34:41.704Z,0.50
2023-06-30T23:39:48.344Z,1.00
2023-06-30T23:44:51.495Z,1.50
2023-06-30T23:49:54.377Z,0.00
2023-06-30T23:54:58.559Z,0.50
